Time;durP1;ratioP1;P1;durP2;ratioP2;P2;SDS_P1;SDS_P2;PMS_P1;PMS_P2;Temp;Humidity;BMP_temperature;BMP_pressure;BME280_temperature;BME280_humidity;BME280_pressure;Samples;Min_cycle;Max_cycle;Signal;HPM_P1;HPM_P2
2022/03/21 00:00:49;;;;;;;18.08;13.02;;;;;;;8.62;54.20;101559.50;5013644;28;20026;-81
2022/03/21 00:03:17;;;;;;;17.43;12.00;;;;;;;8.60;53.58;101550.84;5013304;28;20026;-81
2022/03/21 00:05:45;;;;;;;20.88;11.70;;;;;;;8.56;53.44;101554.50;5013282;28;20105;-81
2022/03/21 00:08:11;;;;;;;19.48;11.02;;;;;;;8.52;53.01;101552.94;5016314;28;20109;-81
2022/03/21 00:10:38;;;;;;;19.10;11.93;;;;;;;8.48;53.59;101548.75;5032689;28;20025;-81
2022/03/21 00:13:04;;;;;;;24.67;13.10;;;;;;;8.46;53.02;101540.09;5031880;28;20021;-81
2022/03/21 00:15:32;;;;;;;21.27;12.50;;;;;;;8.44;52.90;101545.41;5033077;28;20032;-81
2022/03/21 00:18:01;;;;;;;21.55;12.32;;;;;;;8.50;53.29;101552.16;5032901;28;20036;-81
2022/03/21 00:20:27;;;;;;;18.85;11.38;;;;;;;8.45;52.99;101551.47;5031388;28;20512;-81
2022/03/21 00:22:53;;;;;;;20.02;11.93;;;;;;;8.44;53.25;101555.03;5030797;28;20061;-81
2022/03/21 00:25:19;;;;;;;19.90;12.57;;;;;;;8.44;53.21;101548.03;5032516;28;20113;-81
2022/03/21 00:27:44;;;;;;;19.27;11.70;;;;;;;8.41;53.12;101550.78;5032431;28;20025;-81
2022/03/21 00:30:10;;;;;;;17.48;11.88;;;;;;;8.40;53.05;101543.78;5032374;28;20033;-81
2022/03/21 00:32:37;;;;;;;17.92;11.40;;;;;;;8.46;53.01;101554.03;5032902;28;20057;-81
2022/03/21 00:35:07;;;;;;;18.30;12.35;;;;;;;8.53;52.35;101550.28;5032157;28;20063;-81
2022/03/21 00:37:34;;;;;;;20.08;11.40;;;;;;;8.55;51.33;101552.84;5032637;28;20056;-81
2022/03/21 00:39:59;;;;;;;19.15;11.98;;;;;;;8.48;51.06;101546.13;5029428;28;20091;-81
2022/03/21 00:42:26;;;;;;;19.63;12.82;;;;;;;8.60;49.42;101540.38;5032320;28;20030;-81
2022/03/21 00:44:51;;;;;;;15.63;10.65;;;;;;;8.66;50.06;101547.13;5032731;28;20041;-81
2022/03/21 00:47:17;;;;;;;16.35;11.38;;;;;;;8.58;51.16;101541.38;5032475;28;20400;-81
2022/03/21 00:49:43;;;;;;;16.38;10.95;;;;;;;8.38;50.58;101542.16;5030910;28;20021;-81
2022/03/21 00:52:09;;;;;;;18.90;13.07;;;;;;;8.50;49.68;101545.16;5032306;28;20067;-81
2022/03/21 00:54:35;;;;;;;20.20;11.60;;;;;;;8.60;50.78;101550.84;5016628;28;20551;-81
2022/03/21 00:57:00;;;;;;;19.85;11.85;;;;;;;8.53;51.63;101541.53;5012252;28;20026;-81
2022/03/21 00:59:25;;;;;;;16.55;11.00;;;;;;;8.53;51.54;101542.41;5012326;28;20032;-81
2022/03/21 01:01:51;;;;;;;17.90;11.20;;;;;;;8.52;51.86;101548.56;5012502;28;20061;-81
2022/03/21 01:04:17;;;;;;;17.98;10.88;;;;;;;8.49;51.75;101546.06;5012558;28;20033;-81
2022/03/21 01:06:42;;;;;;;19.35;11.63;;;;;;;8.48;51.99;101548.75;5012229;28;20034;-81
2022/03/21 01:09:09;;;;;;;14.88;10.95;;;;;;;8.43;51.90;101548.94;5019836;28;20061;-81
2022/03/21 01:11:35;;;;;;;18.23;11.90;;;;;;;8.36;52.11;101547.44;5032402;28;20021;-81
2022/03/21 01:14:00;;;;;;;20.05;11.68;;;;;;;8.27;50.89;101548.69;5032061;28;20034;-81
2022/03/21 01:16:26;;;;;;;16.65;11.18;;;;;;;8.29;50.34;101552.09;5030933;28;20025;-81
2022/03/21 01:18:51;;;;;;;18.02;10.85;;;;;;;8.40;50.72;101554.25;5031828;28;20021;-81
2022/03/21 01:21:16;;;;;;;18.67;10.60;;;;;;;8.31;51.45;101552.88;5031807;28;20034;-81
2022/03/21 01:23:42;;;;;;;14.45;9.73;;;;;;;8.25;50.79;101550.47;5023430;28;20499;-81
2022/03/21 01:26:07;;;;;;;16.33;10.48;;;;;;;8.21;50.94;101548.91;5012048;28;20109;-81
2022/03/21 01:28:32;;;;;;;16.50;10.80;;;;;;;8.19;50.49;101550.72;5012402;28;20082;-81
2022/03/21 01:30:58;;;;;;;16.10;10.57;;;;;;;8.17;51.04;101556.94;5012082;28;20030;-81
2022/03/21 01:33:24;;;;;;;17.75;10.63;;;;;;;8.16;50.86;101555.25;5012118;28;20472;-81
2022/03/21 01:35:49;;;;;;;19.08;11.07;;;;;;;8.10;50.45;101556.34;5012123;28;20045;-81
2022/03/21 01:38:14;;;;;;;18.80;11.35;;;;;;;8.11;51.72;101547.56;5019396;28;20017;-81
2022/03/21 01:40:40;;;;;;;18.88;10.88;;;;;;;8.17;51.26;101552.56;5031712;28;20026;-81
2022/03/21 01:43:12;;;;;;;15.30;10.43;;;;;;;8.17;50.45;101552.56;5031953;28;20139;-81
2022/03/21 01:45:38;;;;;;;;;;;;;;;8.25;49.24;101544.41;5033184;28;20083;-81
2022/03/21 01:48:04;;;;;;;21.55;10.63;;;;;;;8.03;49.86;101560.09;5035729;28;19913;-81
2022/03/21 01:50:29;;;;;;;16.02;10.63;;;;;;;8.00;49.98;101549.75;5035577;28;20060;-81
2022/03/21 01:55:47;;;;;;;20.75;12.55;;;;;;;7.99;50.40;101555.91;5016193;28;20038;-81
2022/03/21 01:58:14;;;;;;;23.83;14.45;;;;;;;8.00;50.64;101557.59;5014708;28;20365;-81
2022/03/21 02:00:43;;;;;;;24.02;13.63;;;;;;;8.05;50.81;101558.28;5015807;28;20033;-81
2022/03/21 02:03:09;;;;;;;21.92;14.48;;;;;;;7.95;51.24;101550.78;5015616;28;20096;-81
2022/03/21 02:05:37;;;;;;;25.77;16.23;;;;;;;7.82;51.46;101553.91;5015511;28;20472;-81
2022/03/21 02:08:03;;;;;;;19.90;13.88;;;;;;;7.92;50.86;101553.53;5025735;28;20052;-81
2022/03/21 02:10:29;;;;;;;26.27;15.45;;;;;;;7.86;51.39;101547.66;5034975;28;20033;-81
2022/03/21 02:12:55;;;;;;;20.42;15.00;;;;;;;7.97;50.95;101549.88;5034110;28;20087;-81
2022/03/21 02:15:20;;;;;;;23.92;15.65;;;;;;;7.95;51.73;101540.31;5035221;28;20481;-81
2022/03/21 02:17:47;;;;;;;28.45;18.15;;;;;;;7.95;52.03;101545.53;5035202;28;20124;-81
2022/03/21 02:20:23;;;;;;;25.92;16.63;;;;;;;8.02;52.08;101547.94;5035326;28;20112;-81
2022/03/21 02:23:11;;;;;;;27.77;17.17;;;;;;;8.05;52.28;101543.41;5024592;28;20092;-81
2022/03/21 02:25:43;;;;;;;26.77;18.15;;;;;;;7.95;52.52;101548.16;5015146;28;20033;-81
2022/03/21 02:28:14;;;;;;;30.95;18.40;;;;;;;7.87;52.63;101552.84;5015291;28;20030;-81
2022/03/21 02:30:48;;;;;;;28.67;18.48;;;;;;;7.91;52.94;101543.97;5015819;28;20602;-81
2022/03/21 02:33:16;;;;;;;31.30;19.15;;;;;;;7.87;52.28;101542.38;5014044;28;20018;-81
2022/03/21 02:35:47;;;;;;;31.67;20.95;;;;;;;8.01;52.45;101548.84;5014100;28;20400;-81
2022/03/21 02:38:13;;;;;;;35.85;22.80;;;;;;;7.85;53.08;101551.19;5030819;28;20484;-81
2022/03/21 02:40:39;;;;;;;36.83;21.05;;;;;;;7.97;53.09;101549.88;5034905;28;20387;-81
2022/03/21 02:43:04;;;;;;;34.60;21.30;;;;;;;7.91;52.71;101550.97;5035043;28;20045;-81
2022/03/21 02:45:30;;;;;;;35.60;21.58;;;;;;;8.02;53.22;101542.72;5034841;28;20040;-81
2022/03/21 02:47:55;;;;;;;36.15;23.83;;;;;;;8.08;53.26;101543.31;5035177;28;20026;-81
2022/03/21 02:50:28;;;;;;;38.38;22.58;;;;;;;8.17;52.96;101542.09;5033305;28;20112;-81
2022/03/21 02:52:55;;;;;;;39.90;23.27;;;;;;;8.09;53.29;101538.94;5019055;28;20498;-81
2022/03/21 02:55:21;;;;;;;34.85;22.25;;;;;;;8.10;53.87;101540.66;5014621;28;20392;-81
2022/03/21 02:57:46;;;;;;;36.45;23.20;;;;;;;8.01;54.21;101534.00;5014357;28;20022;-81
2022/03/21 03:00:12;;;;;;;39.60;23.52;;;;;;;7.99;54.31;101533.22;5014905;28;20034;-81
2022/03/21 03:02:38;;;;;;;37.40;23.35;;;;;;;8.00;54.23;101528.81;5014922;28;20026;-81
2022/03/21 03:05:03;;;;;;;38.78;24.27;;;;;;;8.05;54.30;101527.72;5014818;28;20528;-81
2022/03/21 03:07:29;;;;;;;41.33;23.77;;;;;;;8.02;54.32;101521.78;5022386;28;20053;-81
2022/03/21 03:09:54;;;;;;;40.80;24.45;;;;;;;7.99;54.56;101524.50;5028276;28;20026;-81
2022/03/21 03:12:19;;;;;;;39.30;25.35;;;;;;;7.99;54.76;101521.91;5033604;28;20105;-81
2022/03/21 03:14:45;;;;;;;43.75;26.95;;;;;;;8.06;54.67;101526.00;5022552;28;20060;-81
2022/03/21 03:17:10;;;;;;;37.13;24.40;;;;;;;8.11;55.01;101521.41;5034393;28;20029;-81
2022/03/21 03:19:35;;;;;;;43.20;27.38;;;;;;;8.22;55.06;101521.00;5034104;28;20475;-81
2022/03/21 03:22:01;;;;;;;41.35;24.60;;;;;;;8.26;55.00;101522.56;5034178;28;20105;-81
2022/03/21 03:24:28;;;;;;;43.60;25.42;;;;;;;8.32;54.70;101515.31;5033775;28;20022;-81
2022/03/21 03:26:53;;;;;;;43.40;26.15;;;;;;;8.58;54.54;101520.44;5014636;28;20036;-81
2022/03/21 03:29:19;;;;;;;39.35;26.25;;;;;;;8.84;54.03;101519.31;5014362;28;20026;-81
2022/03/21 03:31:44;;;;;;;39.85;24.83;;;;;;;8.93;53.57;101521.56;5014961;28;20113;-81
2022/03/21 03:34:10;;;;;;;36.92;24.52;;;;;;;9.03;53.39;101525.47;5014186;28;20033;-81
2022/03/21 03:36:36;;;;;;;43.67;23.52;;;;;;;9.05;53.42;101526.25;5014069;28;20172;-81
2022/03/21 03:39:02;;;;;;;37.88;24.67;;;;;;;9.12;53.75;101524.19;5015321;28;20022;-81
2022/03/21 03:41:27;;;;;;;43.50;24.88;;;;;;;9.18;53.25;101523.94;5026094;28;20478;-81
2022/03/21 03:43:53;;;;;;;39.08;25.08;;;;;;;9.26;53.92;101534.06;5021896;28;20065;-81
2022/03/21 03:46:19;;;;;;;43.63;25.52;;;;;;;9.27;53.57;101528.78;5032826;28;20108;-81
2022/03/21 03:48:46;;;;;;;39.97;25.77;;;;;;;9.09;54.37;101527.81;5033716;28;20021;-81
2022/03/21 03:51:12;;;;;;;41.17;27.02;;;;;;;9.27;54.58;101525.31;5033385;28;20026;-81
2022/03/21 03:53:38;;;;;;;41.38;25.25;;;;;;;9.25;54.02;101529.75;5033707;28;20024;-81
2022/03/21 03:56:06;;;;;;;41.08;26.65;;;;;;;9.11;54.00;101539.06;5033308;28;20379;-81
2022/03/21 03:58:32;;;;;;;38.10;24.60;;;;;;;9.02;53.72;101539.47;5032043;28;20031;-82
2022/03/21 04:00:57;;;;;;;37.10;24.48;;;;;;;9.20;54.30;101536.97;5032455;28;20049;-81
2022/03/21 04:06:07;;;;;;;38.13;24.45;;;;;;;9.24;53.30;101530.66;5033203;28;20435;-82
2022/03/21 04:08:32;;;;;;;37.05;23.95;;;;;;;9.67;52.80;101536.59;5032086;28;20041;-81
2022/03/21 04:10:58;;;;;;;42.50;23.95;;;;;;;9.78;52.15;101539.59;5031647;28;20033;-81
2022/03/21 04:13:23;;;;;;;43.33;25.27;;;;;;;9.61;52.71;101544.75;5032093;28;20147;-81
2022/03/21 04:15:48;;;;;;;37.97;25.15;;;;;;;9.71;52.14;101540.78;5024821;28;20108;-82
2022/03/21 04:18:14;;;;;;;44.70;26.33;;;;;;;9.89;52.17;101544.31;5024074;28;20061;-81
2022/03/21 04:20:40;;;;;;;42.10;25.05;;;;;;;9.69;52.17;101532.13;5037286;28;20841;-81
2022/03/21 04:23:07;;;;;;;34.97;23.63;;;;;;;9.75;52.43;101539.72;5031477;28;20029;-81
2022/03/21 04:25:33;;;;;;;42.20;25.63;;;;;;;9.83;52.49;101544.59;5031570;28;20463;-82
2022/03/21 04:27:59;;;;;;;40.55;24.92;;;;;;;9.88;51.87;101548.72;5015549;28;20057;-82
2022/03/21 04:30:24;;;;;;;36.78;25.83;;;;;;;9.95;52.65;101548.44;5012722;28;20022;-82
2022/03/21 04:32:50;;;;;;;40.03;24.92;;;;;;;9.95;52.51;101551.06;5013141;28;20155;-81
2022/03/21 04:35:16;;;;;;;37.80;24.58;;;;;;;9.98;51.86;101553.56;5023568;28;20582;-81
2022/03/21 04:37:42;;;;;;;40.65;24.27;;;;;;;9.96;52.44;101551.00;5012695;28;20037;-81
2022/03/21 04:40:09;;;;;;;33.42;23.38;;;;;;;10.01;52.42;101551.63;5013181;28;20431;-82
2022/03/21 04:42:36;;;;;;;38.33;25.55;;;;;;;9.97;52.36;101551.84;5012554;28;20101;-81
2022/03/21 04:45:02;;;;;;;39.58;25.55;;;;;;;9.86;52.91;101553.19;5012442;28;20037;-82
2022/03/21 04:47:28;;;;;;;41.28;25.17;;;;;;;9.84;52.60;101560.28;5012347;28;20109;-82
2022/03/21 04:49:53;;;;;;;38.13;24.83;;;;;;;9.93;52.13;101554.63;5012211;28;20436;-81
2022/03/21 04:52:19;;;;;;;41.53;26.45;;;;;;;9.89;51.83;101554.81;5019864;28;20026;-81
2022/03/21 04:54:44;;;;;;;43.17;26.60;;;;;;;9.78;52.64;101552.69;5012404;28;20026;-81
2022/03/21 04:57:11;;;;;;;44.05;25.13;;;;;;;9.90;52.26;101546.88;5013210;28;20488;-82
2022/03/21 04:59:36;;;;;;;40.03;25.38;;;;;;;9.94;52.07;101550.22;5012673;28;20112;-82
2022/03/21 05:02:03;;;;;;;41.65;26.55;;;;;;;9.83;52.38;101550.69;5012129;28;20088;-82
2022/03/21 05:04:28;;;;;;;38.85;24.67;;;;;;;9.83;52.14;101545.44;5013153;28;20431;-82
2022/03/21 05:06:54;;;;;;;43.55;27.33;;;;;;;9.95;52.13;101546.66;5014708;28;20025;-81
2022/03/21 05:09:20;;;;;;;37.78;24.13;;;;;;;9.99;51.34;101542.13;5012198;28;20029;-81
2022/03/21 05:11:45;;;;;;;36.33;22.92;;;;;;;9.77;51.73;101540.50;5012141;28;20022;-81
2022/03/21 05:14:10;;;;;;;40.45;23.90;;;;;;;9.99;51.66;101555.22;5012659;28;20454;-82
2022/03/21 05:16:36;;;;;;;38.25;23.35;;;;;;;10.05;51.35;101549.69;5012059;28;20463;-81
2022/03/21 05:19:01;;;;;;;43.97;25.27;;;;;;;10.13;51.22;101558.06;5011833;28;20026;-82
2022/03/21 05:21:26;;;;;;;35.38;24.38;;;;;;;10.01;50.69;101558.63;5012057;28;20056;-82
2022/03/21 05:32:04;;;;;;;40.70;25.67;;;;;;;10.16;51.54;101557.91;5012084;28;20025;-82
2022/03/21 05:37:13;;;;;;;37.72;23.90;;;;;;;10.26;51.62;101559.16;5012327;28;20045;-82
2022/03/21 05:40:31;;;;;;;36.10;22.80;;;;;;;10.26;51.27;101553.06;5012025;28;20018;-82
2022/03/21 05:42:26;;;;;;;36.13;24.23;;;;;;;10.26;51.32;101556.53;5011899;28;20037;-82
2022/03/21 05:44:52;;;;;;;39.70;24.83;;;;;;;10.18;52.00;101553.44;5010967;28;20079;-82
2022/03/21 05:47:18;;;;;;;41.17;24.00;;;;;;;10.19;51.79;101554.28;5012163;28;20053;-82
2022/03/21 05:49:43;;;;;;;36.40;24.45;;;;;;;10.18;52.31;101555.22;5012134;28;20018;-82
2022/03/21 05:52:09;;;;;;;44.20;26.50;;;;;;;10.12;52.29;101566.84;5010699;28;20022;-82
2022/03/21 05:54:36;;;;;;;37.28;24.98;;;;;;;10.26;52.19;101567.03;5011979;28;20105;-82
2022/03/21 05:57:02;;;;;;;40.75;26.85;;;;;;;10.29;52.02;101560.81;5025447;28;20025;-82
2022/03/21 06:02:11;;;;;;;43.00;24.98;;;;;;;10.28;52.34;101573.06;5031743;28;20036;-82
2022/03/21 06:04:36;;;;;;;39.90;25.25;;;;;;;10.20;52.17;101564.72;5028439;28;20073;-82
2022/03/21 06:07:02;;;;;;;44.78;26.02;;;;;;;10.23;52.07;101568.97;5031606;28;20021;-82
2022/03/21 06:09:27;;;;;;;40.42;25.67;;;;;;;10.37;52.26;101566.56;5031641;28;20395;-82
2022/03/21 06:11:52;;;;;;;38.55;24.38;;;;;;;10.06;52.10;101572.41;5031604;28;20025;-82
2022/03/21 06:14:18;;;;;;;39.13;24.25;;;;;;;10.19;51.93;101581.41;5030067;28;20033;-82
2022/03/21 06:16:44;;;;;;;45.08;26.88;;;;;;;10.22;52.12;101578.63;5030295;28;20033;-82
2022/03/21 06:19:10;;;;;;;39.65;26.10;;;;;;;10.29;51.62;101585.28;5029208;28;20028;-82
2022/03/21 06:21:35;;;;;;;39.65;24.95;;;;;;;10.08;52.46;101584.50;5011962;28;20388;-82
2022/03/21 06:24:00;;;;;;;39.08;23.02;;;;;;;10.09;51.80;101574.88;5015469;28;20034;-82
2022/03/21 06:26:26;;;;;;;33.80;23.02;;;;;;;10.45;51.54;101584.59;5028963;28;20053;-82
2022/03/21 06:28:51;;;;;;;36.05;22.73;;;;;;;10.54;51.60;101589.38;5016100;28;20446;-81
2022/03/21 06:31:17;;;;;;;40.90;24.63;;;;;;;10.36;51.87;101585.84;5013439;28;20025;-82
2022/03/21 06:33:42;;;;;;;38.15;24.65;;;;;;;10.36;51.63;101590.28;5014367;28;20033;-84
2022/03/21 06:36:09;;;;;;;36.58;24.35;;;;;;;10.53;51.47;101587.69;5012388;28;20041;-82
2022/03/21 06:38:34;;;;;;;37.50;24.05;;;;;;;10.65;51.45;101586.22;5009536;28;20133;-81
2022/03/21 06:41:00;;;;;;;42.22;27.65;;;;;;;10.52;51.74;101591.22;5016350;28;20048;-81
2022/03/21 06:43:27;;;;;;;41.95;26.73;;;;;;;10.66;51.85;101593.16;5029768;28;20033;-80
2022/03/21 06:45:54;;;;;;;39.65;25.55;;;;;;;10.62;51.49;101597.72;5029428;28;20343;-80
2022/03/21 06:48:24;;;;;;;35.30;24.38;;;;;;;10.74;51.89;101595.41;5029457;28;20033;-80
2022/03/21 06:50:51;;;;;;;40.42;26.38;;;;;;;10.76;52.03;101599.66;5029583;28;20490;-80
2022/03/21 06:53:18;;;;;;;40.88;26.48;;;;;;;10.95;51.58;101604.00;5029288;28;20030;-80
2022/03/21 06:55:44;;;;;;;41.25;27.15;;;;;;;10.52;51.85;101604.34;5028895;28;20029;-80
2022/03/21 06:58:12;;;;;;;42.70;26.98;;;;;;;10.59;52.08;101608.38;5029602;28;20431;-80
2022/03/21 07:00:41;;;;;;;40.05;25.67;;;;;;;10.76;52.00;101611.94;5029124;28;20032;-80
2022/03/21 07:03:08;;;;;;;37.75;25.52;;;;;;;10.63;51.56;101603.84;5029305;28;20033;-80
2022/03/21 07:05:34;;;;;;;35.67;24.90;;;;;;;10.67;51.31;101614.09;5029197;28;20395;-81
2022/03/21 07:08:00;;;;;;;36.83;25.80;;;;;;;10.81;51.21;101623.94;5029611;28;20399;-84
2022/03/21 08:28:54;;;;;;;41.20;26.17;;;;;;;10.95;52.83;101635.56;5068842;28;20391;-83
2022/03/21 08:31:20;;;;;;;40.13;26.67;;;;;;;11.34;51.63;101643.19;5065518;28;20478;-80
2022/03/21 08:33:45;;;;;;;44.17;25.42;;;;;;;11.65;51.18;101636.31;5067932;28;20051;-81
2022/03/21 08:36:12;;;;;;;45.40;28.77;;;;;;;11.60;50.91;101643.63;5069275;28;20028;-81
2022/03/21 08:38:38;;;;;;;45.03;28.92;;;;;;;11.57;51.04;101649.91;5066439;28;20032;-83
2022/03/21 08:41:04;;;;;;;43.42;28.17;;;;;;;11.61;50.96;101650.56;5067664;28;20055;-81
2022/03/21 08:43:29;;;;;;;44.53;29.00;;;;;;;11.68;51.03;101641.44;5049070;28;20033;-81
2022/03/21 08:45:55;;;;;;;45.38;30.20;;;;;;;11.77;50.74;101651.47;5047565;28;20117;-81
2022/03/21 08:49:23;;;;;;;45.33;26.67;;;;;;;11.68;50.59;101654.59;5064941;28;20116;-81
2022/03/21 08:51:06;;;;;;;40.55;27.55;;;;;;;11.59;50.49;101657.69;5067029;28;20487;-81
2022/03/21 08:53:32;;;;;;;39.10;27.10;;;;;;;11.65;50.75;101652.09;5069791;28;20030;-81
2022/03/21 08:55:57;;;;;;;41.92;26.55;;;;;;;11.70;50.67;101650.09;5069579;28;20024;-82
2022/03/21 08:58:23;;;;;;;44.42;29.30;;;;;;;11.86;50.75;101650.13;5071074;28;20025;-82
2022/03/21 09:00:48;;;;;;;88.38;30.85;;;;;;;11.83;50.09;101661.69;5067756;28;20159;-82
2022/03/21 09:03:13;;;;;;;41.03;28.75;;;;;;;11.75;50.56;101663.88;5049574;28;20032;-82
2022/03/21 09:05:39;;;;;;;42.60;27.65;;;;;;;11.61;50.77;101661.09;5048381;28;20032;-81
2022/03/21 09:08:04;;;;;;;44.00;27.90;;;;;;;11.68;50.66;101662.47;5048456;28;20083;-82
2022/03/21 09:10:29;;;;;;;44.47;27.98;;;;;;;11.67;51.09;101655.50;5048251;28;20025;-82
2022/03/21 09:12:55;;;;;;;42.17;27.08;;;;;;;11.76;50.66;101655.03;5058087;28;20470;-82
2022/03/21 09:15:22;;;;;;;43.60;26.80;;;;;;;11.96;50.59;101655.78;5064736;28;20103;-82
2022/03/21 09:17:47;;;;;;;39.30;28.00;;;;;;;12.24;50.04;101656.00;5049408;28;20025;-82
2022/03/21 09:20:14;;;;;;;41.92;28.08;;;;;;;12.10;50.43;101656.75;5048123;28;20477;-82
2022/03/21 09:22:39;;;;;;;43.03;27.60;;;;;;;12.39;49.66;101650.81;5046708;28;20095;-82
2022/03/21 09:25:05;;;;;;;39.78;27.13;;;;;;;12.46;49.83;101650.38;5050910;28;20459;-83
2022/03/21 09:27:31;;;;;;;42.17;27.70;;;;;;;12.44;49.81;101652.25;5065117;28;20119;-83
2022/03/21 09:29:56;;;;;;;42.65;28.20;;;;;;;12.65;49.77;101654.59;5058060;28;20116;-83
2022/03/21 09:32:22;;;;;;;40.53;27.35;;;;;;;12.56;50.11;101648.06;5049025;28;20041;-83
2022/03/21 09:34:47;;;;;;;44.42;28.63;;;;;;;12.61;49.75;101653.91;5047151;28;20040;-83
2022/03/21 09:37:12;;;;;;;41.60;28.42;;;;;;;12.59;49.70;101655.78;5048724;28;20021;-82
2022/03/21 09:39:38;;;;;;;44.05;28.65;;;;;;;12.85;49.10;101645.53;5057827;28;20028;-82
2022/03/21 09:42:03;;;;;;;43.13;27.27;;;;;;;12.86;49.39;101637.56;5046220;28;20028;-82
2022/03/21 09:44:29;;;;;;;41.50;26.35;;;;;;;13.20;49.05;101640.00;5034005;28;20103;-82
2022/03/21 09:46:55;;;;;;;39.70;26.75;;;;;;;13.38;48.75;101638.94;5034311;28;20494;-82
2022/03/21 09:49:26;;;;;;;45.50;29.08;;;;;;;13.44;48.41;101637.72;5036539;28;20096;-82
2022/03/21 09:51:54;;;;;;;35.45;25.42;;;;;;;13.63;48.43;101633.03;5046831;28;20024;-82
2022/03/21 09:54:20;;;;;;;84.78;30.13;;;;;;;13.68;48.16;101635.38;5038964;28;20025;-82
2022/03/21 09:56:46;;;;;;;114.40;30.70;;;;;;;13.93;47.81;101623.31;5036444;28;20024;-82
2022/03/21 09:59:12;;;;;;;41.90;25.52;;;;;;;14.20;47.58;101626.00;5054144;28;20025;-82
2022/03/21 10:01:38;;;;;;;855.38;95.20;;;;;;;14.13;47.09;101633.44;5038239;28;20471;-82
2022/03/21 10:04:06;;;;;;;54.20;26.88;;;;;;;14.32;46.91;101624.38;5034561;28;20045;-82
2022/03/21 10:06:34;;;;;;;37.95;27.52;;;;;;;14.35;46.79;101626.78;5032837;28;20025;-82
2022/03/21 10:09:19;;;;;;;36.83;24.80;;;;;;;14.40;47.20;101627.38;5036747;28;20022;-83
2022/03/21 10:11:56;;;;;;;41.85;26.33;;;;;;;14.63;46.99;101631.16;5055302;28;20057;-83
2022/03/21 10:14:35;;;;;;;44.08;28.45;;;;;;;14.93;46.26;101632.72;5036162;28;20053;-82
2022/03/21 10:17:05;;;;;;;53.22;28.02;;;;;;;14.86;46.03;101640.22;5051160;28;20037;-83
2022/03/21 10:19:52;;;;;;;42.88;26.88;;;;;;;15.04;46.27;101632.84;5052553;28;20033;-83
2022/03/21 10:22:33;;;;;;;39.05;27.15;;;;;;;14.78;45.79;101637.25;5053848;28;20029;-82
2022/03/21 10:25:04;;;;;;;40.88;27.35;;;;;;;15.35;45.70;101636.91;5053789;28;20116;-82
2022/03/21 10:27:36;;;;;;;37.92;27.50;;;;;;;15.36;45.35;101633.31;5053530;28;20075;-83
2022/03/21 10:30:07;;;;;;;37.28;26.45;;;;;;;15.41;45.20;101633.84;5053752;28;20112;-83
2022/03/21 10:32:44;;;;;;;38.03;26.08;;;;;;;15.15;46.63;101637.44;5033732;28;20484;-83
2022/03/21 10:35:17;;;;;;;37.45;27.70;;;;;;;15.27;45.88;101629.50;5033795;28;20167;-83
2022/03/21 10:37:52;;;;;;;37.03;26.80;;;;;;;15.69;45.10;101629.28;5033561;28;20025;-83
2022/03/21 10:40:18;;;;;;;41.63;28.38;;;;;;;15.20;45.75;101630.84;5033677;28;20138;-83
2022/03/21 10:43:18;;;;;;;38.92;28.95;;;;;;;15.74;45.17;101632.50;5033236;28;20025;-83
2022/03/21 10:45:49;;;;;;;39.45;27.65;;;;;;;15.78;45.40;101638.44;5049506;28;20384;-83
2022/03/21 10:48:22;;;;;;;37.40;27.25;;;;;;;15.73;45.10;101644.03;5053252;28;20082;-83
2022/03/21 10:50:49;;;;;;;39.40;28.40;;;;;;;15.71;45.33;101643.25;5052273;28;20024;-83
2022/03/21 10:53:22;;;;;;;42.08;27.88;;;;;;;15.63;46.14;101635.84;5050964;28;20494;-82
2022/03/21 10:55:49;;;;;;;40.28;29.92;;;;;;;15.56;46.35;101639.03;5035653;28;20034;-83
2022/03/21 10:58:32;;;;;;;37.58;28.48;;;;;;;15.59;46.19;101638.81;5033353;28;20033;-83
2022/03/21 11:01:12;;;;;;;41.53;28.73;;;;;;;15.94;45.78;101638.19;5033069;28;20040;-82
2022/03/21 11:03:42;;;;;;;38.78;25.60;;;;;;;16.06;46.04;101634.66;5033238;28;20033;-83
2022/03/21 11:06:12;;;;;;;40.83;29.50;;;;;;;16.42;45.25;101633.78;5033123;28;20084;-83
2022/03/21 11:08:38;;;;;;;36.97;26.10;;;;;;;16.65;45.42;101640.06;5032996;28;20494;-82
2022/03/21 11:11:05;;;;;;;39.03;28.35;;;;;;;16.49;45.50;101634.22;5046477;28;20036;-83
2022/03/21 11:13:31;;;;;;;38.63;28.50;;;;;;;16.69;45.03;101618.63;5051499;28;20052;-83
2022/03/21 11:15:58;;;;;;;47.38;30.50;;;;;;;16.61;45.36;101633.28;5052922;28;20017;-83
2022/03/21 11:18:26;;;;;;;38.05;27.10;;;;;;;16.80;45.42;101632.75;5049407;28;20052;-83
2022/03/21 11:20:52;;;;;;;45.40;29.23;;;;;;;16.05;46.19;101625.88;5044501;28;20037;-83
2022/03/21 11:23:18;;;;;;;41.03;28.65;;;;;;;16.47;45.92;101625.53;5032602;28;20025;-83
2022/03/21 11:25:55;;;;;;;39.90;28.02;;;;;;;16.39;46.02;101622.56;5032527;28;20025;-83
2022/03/21 11:29:06;;;;;;;35.83;28.52;;;;;;;16.36;46.30;101628.09;5032464;28;20479;-82
2022/03/21 11:31:53;;;;;;;38.40;29.08;;;;;;;16.57;45.79;101634.47;5030845;28;20507;-82
2022/03/21 11:34:40;;;;;;;39.25;28.50;;;;;;;16.69;45.79;101614.16;5032366;28;20041;-83
2022/03/21 11:37:06;;;;;;;37.28;27.35;;;;;;;16.91;45.62;101618.72;5033182;28;20424;-83
2022/03/21 11:39:32;;;;;;;38.67;29.23;;;;;;;16.98;45.54;101622.63;5032135;28;20021;-83
2022/03/21 11:42:09;;;;;;;42.25;28.80;;;;;;;16.71;45.91;101611.41;5032264;28;20022;-83
2022/03/21 11:44:35;;;;;;;45.95;30.45;;;;;;;16.77;46.39;101617.09;5032114;28;20022;-83
2022/03/21 11:47:23;;;;;;;41.95;29.98;;;;;;;16.59;46.66;101619.31;5032113;28;20040;-83
2022/03/21 11:49:50;;;;;;;43.30;31.30;;;;;;;16.57;47.20;101604.47;5033006;28;20072;-83
2022/03/21 11:52:15;;;;;;;40.65;29.15;;;;;;;16.39;47.20;101610.19;5032223;28;20040;-82
2022/03/21 11:54:41;;;;;;;47.22;31.92;;;;;;;16.25;47.46;101607.66;5036459;28;20020;-83
2022/03/21 11:57:17;;;;;;;41.08;30.05;;;;;;;16.24;47.72;101614.78;5040473;28;20372;-83
2022/03/21 11:59:43;;;;;;;41.10;30.95;;;;;;;16.37;47.93;101614.75;5031915;28;20030;-82
2022/03/21 12:02:11;;;;;;;42.50;29.10;;;;;;;16.93;46.78;101614.16;5030567;28;20026;-82
2022/03/21 12:04:38;;;;;;;40.53;28.95;;;;;;;16.93;46.72;101594.75;5032141;28;20049;-83
2022/03/21 12:07:13;;;;;;;40.78;28.73;;;;;;;17.47;46.12;101612.69;5031821;28;20032;-82
2022/03/21 12:09:46;;;;;;;40.55;28.75;;;;;;;17.34;46.09;101612.81;5032056;28;20083;-83
2022/03/21 12:12:13;;;;;;;39.47;27.15;;;;;;;17.41;46.05;101610.50;5040646;28;20063;-83
2022/03/21 12:14:54;;;;;;;34.95;27.92;;;;;;;17.76;45.46;101601.59;5051693;28;20028;-83
2022/03/21 12:17:22;;;;;;;40.45;28.08;;;;;;;18.00;44.93;101609.44;5052466;28;20016;-83
2022/03/21 12:19:48;;;;;;;39.58;28.92;;;;;;;17.68;45.80;101602.19;5051838;28;20051;-83
2022/03/21 12:22:28;;;;;;;39.38;27.85;;;;;;;18.05;44.92;101601.94;5051862;28;20471;-83
2022/03/21 12:24:58;;;;;;;39.08;27.15;;;;;;;18.31;44.28;101596.34;5042222;28;20048;-83
2022/03/21 12:27:30;;;;;;;37.10;27.67;;;;;;;18.43;44.50;101600.63;5031530;28;20025;-83
2022/03/21 12:30:29;;;;;;;37.63;27.88;;;;;;;18.13;44.98;101596.84;5031729;28;20151;-83
2022/03/21 12:33:06;;;;;;;46.20;26.25;;;;;;;18.43;44.04;101592.66;5030366;28;20365;-83
2022/03/21 12:35:31;;;;;;;42.85;26.35;;;;;;;18.30;44.04;101597.28;5031726;28;20025;-83
2022/03/21 12:38:14;;;;;;;41.42;27.35;;;;;;;18.38;43.86;101594.84;5031737;28;20021;-83
2022/03/21 12:40:52;;;;;;;44.08;28.42;;;;;;;18.26;44.55;101598.50;5049445;28;20482;-83
2022/03/21 12:43:22;;;;;;;42.88;28.70;;;;;;;18.15;44.83;101589.59;5051502;28;20029;-83
2022/03/21 12:45:50;;;;;;;35.83;25.70;;;;;;;18.48;44.88;101589.59;5051734;28;20052;-83
2022/03/21 12:48:19;;;;;;;39.25;27.23;;;;;;;18.66;44.63;101589.88;5051551;28;20398;-83
2022/03/21 12:50:49;;;;;;;41.08;27.10;;;;;;;18.87;44.29;101582.81;5051406;28;20060;-83
2022/03/21 12:53:18;;;;;;;47.55;28.15;;;;;;;18.91;44.38;101589.56;5051574;28;20025;-83
2022/03/21 12:55:59;;;;;;;35.38;26.55;;;;;;;19.46;43.40;101588.47;5049849;28;20385;-83